sensor_id;sensor_type;location;lat;lon;timestamp;P1;durP1;ratioP1;P2;durP2;ratioP2
17818;SDS011;9034;50.284;19.310;2022-07-23T00:00:58;10.70;;;9.60;;
17818;SDS011;9034;50.284;19.310;2022-07-23T00:02:01;10.10;;;9.00;;
17818;SDS011;9034;50.284;19.310;2022-07-23T00:03:06;10.23;;;8.75;;
17818;SDS011;9034;50.284;19.310;2022-07-23T00:04:09;8.85;;;7.95;;
17818;SDS011;9034;50.284;19.310;2022-07-23T00:05:13;8.43;;;7.63;;
17818;SDS011;9034;50.284;19.310;2022-07-23T00:06:17;10.57;;;9.57;;
17818;SDS011;9034;50.284;19.310;2022-07-23T00:07:21;12.48;;;10.00;;
17818;SDS011;9034;50.284;19.310;2022-07-23T00:08:24;11.43;;;9.32;;
17818;SDS011;9034;50.284;19.310;2022-07-23T00:09:28;12.48;;;9.35;;
17818;SDS011;9034;50.284;19.310;2022-07-23T00:10:33;12.23;;;10.57;;
17818;SDS011;9034;50.284;19.310;2022-07-23T00:11:39;11.80;;;10.60;;
17818;SDS011;9034;50.284;19.310;2022-07-23T00:12:42;11.75;;;10.55;;
17818;SDS011;9034;50.284;19.310;2022-07-23T00:13:53;11.80;;;10.63;;
17818;SDS011;9034;50.284;19.310;2022-07-23T00:14:57;11.77;;;10.00;;
17818;SDS011;9034;50.284;19.310;2022-07-23T00:16:01;13.90;;;10.85;;
17818;SDS011;9034;50.284;19.310;2022-07-23T00:17:05;11.30;;;10.10;;
17818;SDS011;9034;50.284;19.310;2022-07-23T00:18:09;10.70;;;9.65;;
17818;SDS011;9034;50.284;19.310;2022-07-23T00:19:12;10.95;;;9.85;;
17818;SDS011;9034;50.284;19.310;2022-07-23T00:20:17;10.95;;;9.20;;
17818;SDS011;9034;50.284;19.310;2022-07-23T00:21:20;10.15;;;8.52;;
17818;SDS011;9034;50.284;19.310;2022-07-23T00:22:24;9.52;;;8.45;;
17818;SDS011;9034;50.284;19.310;2022-07-23T00:23:27;8.70;;;7.85;;
17818;SDS011;9034;50.284;19.310;2022-07-23T00:24:33;12.38;;;7.70;;
17818;SDS011;9034;50.284;19.310;2022-07-23T00:25:36;9.43;;;8.35;;
17818;SDS011;9034;50.284;19.310;2022-07-23T00:26:41;9.00;;;8.10;;
17818;SDS011;9034;50.284;19.310;2022-07-23T00:27:45;8.93;;;8.13;;
17818;SDS011;9034;50.284;19.310;2022-07-23T00:28:49;12.60;;;9.82;;
17818;SDS011;9034;50.284;19.310;2022-07-23T00:29:53;11.05;;;9.73;;
17818;SDS011;9034;50.284;19.310;2022-07-23T00:30:56;9.50;;;8.60;;
17818;SDS011;9034;50.284;19.310;2022-07-23T00:32:01;9.88;;;8.88;;
17818;SDS011;9034;50.284;19.310;2022-07-23T00:33:05;10.90;;;8.85;;
17818;SDS011;9034;50.284;19.310;2022-07-23T00:34:10;11.38;;;8.95;;
17818;SDS011;9034;50.284;19.310;2022-07-23T00:35:13;9.05;;;8.18;;
17818;SDS011;9034;50.284;19.310;2022-07-23T00:36:18;10.95;;;8.80;;
17818;SDS011;9034;50.284;19.310;2022-07-23T00:37:21;10.52;;;9.50;;
17818;SDS011;9034;50.284;19.310;2022-07-23T00:38:26;10.73;;;9.10;;
17818;SDS011;9034;50.284;19.310;2022-07-23T00:39:29;9.50;;;8.50;;
17818;SDS011;9034;50.284;19.310;2022-07-23T00:40:34;10.52;;;9.38;;
17818;SDS011;9034;50.284;19.310;2022-07-23T00:41:38;11.80;;;8.75;;
17818;SDS011;9034;50.284;19.310;2022-07-23T00:42:44;9.55;;;8.65;;
17818;SDS011;9034;50.284;19.310;2022-07-23T00:43:47;12.45;;;11.13;;
17818;SDS011;9034;50.284;19.310;2022-07-23T00:44:52;15.35;;;12.32;;
17818;SDS011;9034;50.284;19.310;2022-07-23T00:45:55;14.02;;;12.00;;
17818;SDS011;9034;50.284;19.310;2022-07-23T00:46:59;10.13;;;8.73;;
17818;SDS011;9034;50.284;19.310;2022-07-23T00:48:03;11.52;;;10.32;;
17818;SDS011;9034;50.284;19.310;2022-07-23T00:49:07;12.10;;;10.30;;
17818;SDS011;9034;50.284;19.310;2022-07-23T00:50:11;9.52;;;8.52;;
17818;SDS011;9034;50.284;19.310;2022-07-23T00:51:15;9.18;;;7.90;;
17818;SDS011;9034;50.284;19.310;2022-07-23T00:52:19;9.65;;;8.35;;
17818;SDS011;9034;50.284;19.310;2022-07-23T00:53:23;9.27;;;7.25;;
17818;SDS011;9034;50.284;19.310;2022-07-23T00:54:27;8.73;;;7.80;;
17818;SDS011;9034;50.284;19.310;2022-07-23T00:55:31;8.20;;;7.40;;
17818;SDS011;9034;50.284;19.310;2022-07-23T00:56:35;9.45;;;8.55;;
17818;SDS011;9034;50.284;19.310;2022-07-23T00:57:40;9.07;;;7.88;;
17818;SDS011;9034;50.284;19.310;2022-07-23T00:58:45;9.88;;;8.98;;
17818;SDS011;9034;50.284;19.310;2022-07-23T00:59:49;13.57;;;12.02;;
17818;SDS011;9034;50.284;19.310;2022-07-23T01:00:53;13.60;;;11.52;;
17818;SDS011;9034;50.284;19.310;2022-07-23T01:01:57;10.45;;;9.43;;
17818;SDS011;9034;50.284;19.310;2022-07-23T01:03:00;12.32;;;9.55;;
17818;SDS011;9034;50.284;19.310;2022-07-23T01:04:04;11.05;;;9.98;;
17818;SDS011;9034;50.284;19.310;2022-07-23T01:05:08;11.27;;;10.15;;
17818;SDS011;9034;50.284;19.310;2022-07-23T01:06:13;9.18;;;8.25;;
17818;SDS011;9034;50.284;19.310;2022-07-23T01:07:16;8.70;;;7.40;;
17818;SDS011;9034;50.284;19.310;2022-07-23T01:08:21;9.55;;;8.65;;
17818;SDS011;9034;50.284;19.310;2022-07-23T01:09:24;9.48;;;8.57;;
17818;SDS011;9034;50.284;19.310;2022-07-23T01:10:28;10.13;;;9.05;;
17818;SDS011;9034;50.284;19.310;2022-07-23T01:11:35;12.75;;;11.48;;
17818;SDS011;9034;50.284;19.310;2022-07-23T01:12:41;11.27;;;10.18;;
17818;SDS011;9034;50.284;19.310;2022-07-23T01:13:46;12.57;;;11.35;;
17818;SDS011;9034;50.284;19.310;2022-07-23T01:14:54;15.70;;;11.98;;
17818;SDS011;9034;50.284;19.310;2022-07-23T01:15:57;11.80;;;10.65;;
17818;SDS011;9034;50.284;19.310;2022-07-23T01:17:02;12.27;;;9.38;;
17818;SDS011;9034;50.284;19.310;2022-07-23T01:18:06;9.90;;;8.23;;
17818;SDS011;9034;50.284;19.310;2022-07-23T01:19:12;10.13;;;8.27;;
17818;SDS011;9034;50.284;19.310;2022-07-23T01:20:16;8.55;;;7.65;;
17818;SDS011;9034;50.284;19.310;2022-07-23T01:21:21;10.57;;;8.43;;
17818;SDS011;9034;50.284;19.310;2022-07-23T01:22:28;7.95;;;7.15;;
17818;SDS011;9034;50.284;19.310;2022-07-23T01:23:32;8.65;;;7.82;;
17818;SDS011;9034;50.284;19.310;2022-07-23T01:24:36;10.80;;;9.25;;
17818;SDS011;9034;50.284;19.310;2022-07-23T01:25:47;10.15;;;8.80;;
17818;SDS011;9034;50.284;19.310;2022-07-23T01:26:51;11.02;;;9.30;;
17818;SDS011;9034;50.284;19.310;2022-07-23T01:27:55;12.43;;;10.90;;
17818;SDS011;9034;50.284;19.310;2022-07-23T01:28:59;11.75;;;10.65;;
17818;SDS011;9034;50.284;19.310;2022-07-23T01:30:04;12.38;;;11.00;;
17818;SDS011;9034;50.284;19.310;2022-07-23T01:31:08;11.18;;;10.10;;
17818;SDS011;9034;50.284;19.310;2022-07-23T01:32:12;11.23;;;10.02;;
17818;SDS011;9034;50.284;19.310;2022-07-23T01:33:15;12.02;;;10.73;;
17818;SDS011;9034;50.284;19.310;2022-07-23T01:34:20;10.38;;;9.25;;
17818;SDS011;9034;50.284;19.310;2022-07-23T01:35:23;10.05;;;9.00;;
17818;SDS011;9034;50.284;19.310;2022-07-23T01:36:32;10.77;;;9.70;;
17818;SDS011;9034;50.284;19.310;2022-07-23T01:37:37;9.43;;;8.52;;
17818;SDS011;9034;50.284;19.310;2022-07-23T01:38:42;10.05;;;8.52;;
17818;SDS011;9034;50.284;19.310;2022-07-23T01:39:46;10.05;;;9.05;;
17818;SDS011;9034;50.284;19.310;2022-07-23T01:40:50;11.55;;;10.23;;
17818;SDS011;9034;50.284;19.310;2022-07-23T01:42:00;11.80;;;9.93;;
17818;SDS011;9034;50.284;19.310;2022-07-23T01:43:06;10.93;;;9.90;;
17818;SDS011;9034;50.284;19.310;2022-07-23T01:44:11;12.63;;;11.32;;
17818;SDS011;9034;50.284;19.310;2022-07-23T01:45:16;12.35;;;11.15;;
17818;SDS011;9034;50.284;19.310;2022-07-23T01:46:23;12.82;;;10.40;;
17818;SDS011;9034;50.284;19.310;2022-07-23T01:47:28;11.23;;;10.07;;
17818;SDS011;9034;50.284;19.310;2022-07-23T01:48:31;11.50;;;10.40;;
17818;SDS011;9034;50.284;19.310;2022-07-23T01:49:58;10.73;;;9.73;;
17818;SDS011;9034;50.284;19.310;2022-07-23T01:51:21;11.35;;;10.15;;
17818;SDS011;9034;50.284;19.310;2022-07-23T01:52:40;12.48;;;11.05;;
17818;SDS011;9034;50.284;19.310;2022-07-23T01:53:43;11.15;;;10.10;;
17818;SDS011;9034;50.284;19.310;2022-07-23T01:54:47;11.30;;;10.25;;
17818;SDS011;9034;50.284;19.310;2022-07-23T01:55:51;11.32;;;10.15;;
17818;SDS011;9034;50.284;19.310;2022-07-23T01:56:56;10.40;;;9.35;;
17818;SDS011;9034;50.284;19.310;2022-07-23T01:57:59;11.38;;;10.23;;
17818;SDS011;9034;50.284;19.310;2022-07-23T01:59:04;11.10;;;10.00;;
17818;SDS011;9034;50.284;19.310;2022-07-23T02:00:08;10.80;;;9.73;;
17818;SDS011;9034;50.284;19.310;2022-07-23T02:01:21;12.27;;;10.63;;
17818;SDS011;9034;50.284;19.310;2022-07-23T02:02:26;11.23;;;10.13;;
17818;SDS011;9034;50.284;19.310;2022-07-23T02:03:29;12.30;;;11.10;;
17818;SDS011;9034;50.284;19.310;2022-07-23T02:04:34;11.55;;;10.00;;
17818;SDS011;9034;50.284;19.310;2022-07-23T02:05:39;10.25;;;9.25;;
17818;SDS011;9034;50.284;19.310;2022-07-23T02:06:43;8.68;;;7.80;;
17818;SDS011;9034;50.284;19.310;2022-07-23T02:07:48;7.50;;;6.75;;
17818;SDS011;9034;50.284;19.310;2022-07-23T02:08:52;7.45;;;6.82;;
17818;SDS011;9034;50.284;19.310;2022-07-23T02:09:56;8.27;;;7.40;;
17818;SDS011;9034;50.284;19.310;2022-07-23T02:11:01;7.45;;;6.75;;
17818;SDS011;9034;50.284;19.310;2022-07-23T02:12:04;7.28;;;6.07;;
17818;SDS011;9034;50.284;19.310;2022-07-23T02:13:08;7.30;;;6.70;;
17818;SDS011;9034;50.284;19.310;2022-07-23T02:14:19;7.10;;;6.18;;
17818;SDS011;9034;50.284;19.310;2022-07-23T02:15:23;9.02;;;8.20;;
17818;SDS011;9034;50.284;19.310;2022-07-23T02:16:27;12.60;;;11.30;;
17818;SDS011;9034;50.284;19.310;2022-07-23T02:17:36;11.43;;;10.32;;
17818;SDS011;9034;50.284;19.310;2022-07-23T02:18:40;11.23;;;9.77;;
17818;SDS011;9034;50.284;19.310;2022-07-23T02:19:45;9.40;;;8.60;;
17818;SDS011;9034;50.284;19.310;2022-07-23T02:20:48;12.90;;;11.32;;
17818;SDS011;9034;50.284;19.310;2022-07-23T02:21:53;9.90;;;8.73;;
17818;SDS011;9034;50.284;19.310;2022-07-23T02:22:58;13.05;;;10.15;;
17818;SDS011;9034;50.284;19.310;2022-07-23T02:24:02;12.45;;;10.15;;
17818;SDS011;9034;50.284;19.310;2022-07-23T02:25:06;10.85;;;9.85;;
17818;SDS011;9034;50.284;19.310;2022-07-23T02:26:11;10.15;;;9.07;;
17818;SDS011;9034;50.284;19.310;2022-07-23T02:27:22;9.20;;;8.40;;
17818;SDS011;9034;50.284;19.310;2022-07-23T02:28:27;8.40;;;7.50;;
17818;SDS011;9034;50.284;19.310;2022-07-23T02:29:31;7.20;;;6.53;;
17818;SDS011;9034;50.284;19.310;2022-07-23T02:30:36;7.78;;;6.90;;
17818;SDS011;9034;50.284;19.310;2022-07-23T02:31:41;9.88;;;8.95;;
17818;SDS011;9034;50.284;19.310;2022-07-23T02:32:46;8.65;;;7.85;;
17818;SDS011;9034;50.284;19.310;2022-07-23T02:33:50;10.75;;;9.75;;
17818;SDS011;9034;50.284;19.310;2022-07-23T02:34:54;10.70;;;9.60;;
17818;SDS011;9034;50.284;19.310;2022-07-23T02:35:57;10.50;;;9.43;;
17818;SDS011;9034;50.284;19.310;2022-07-23T02:37:01;9.73;;;8.73;;
17818;SDS011;9034;50.284;19.310;2022-07-23T02:38:06;9.82;;;8.77;;
17818;SDS011;9034;50.284;19.310;2022-07-23T02:39:11;11.52;;;9.65;;
17818;SDS011;9034;50.284;19.310;2022-07-23T02:40:14;11.55;;;10.45;;
17818;SDS011;9034;50.284;19.310;2022-07-23T02:41:18;11.23;;;10.13;;
17818;SDS011;9034;50.284;19.310;2022-07-23T02:42:21;10.88;;;9.77;;
17818;SDS011;9034;50.284;19.310;2022-07-23T02:43:26;10.77;;;9.35;;
17818;SDS011;9034;50.284;19.310;2022-07-23T02:44:30;9.65;;;8.75;;
17818;SDS011;9034;50.284;19.310;2022-07-23T02:45:35;9.98;;;8.40;;
17818;SDS011;9034;50.284;19.310;2022-07-23T02:46:38;10.25;;;9.25;;
17818;SDS011;9034;50.284;19.310;2022-07-23T02:47:43;10.75;;;9.75;;
17818;SDS011;9034;50.284;19.310;2022-07-23T02:48:46;10.93;;;9.82;;
17818;SDS011;9034;50.284;19.310;2022-07-23T02:49:51;10.30;;;9.30;;
17818;SDS011;9034;50.284;19.310;2022-07-23T02:50:54;10.68;;;9.68;;
17818;SDS011;9034;50.284;19.310;2022-07-23T02:52:04;11.77;;;10.45;;
17818;SDS011;9034;50.284;19.310;2022-07-23T02:53:08;13.88;;;12.25;;
17818;SDS011;9034;50.284;19.310;2022-07-23T02:54:14;16.33;;;9.77;;
17818;SDS011;9034;50.284;19.310;2022-07-23T02:55:17;13.20;;;11.85;;
17818;SDS011;9034;50.284;19.310;2022-07-23T02:56:21;11.90;;;8.88;;
17818;SDS011;9034;50.284;19.310;2022-07-23T02:57:24;10.98;;;9.85;;
17818;SDS011;9034;50.284;19.310;2022-07-23T02:58:29;10.93;;;9.93;;
17818;SDS011;9034;50.284;19.310;2022-07-23T02:59:32;12.18;;;10.63;;
17818;SDS011;9034;50.284;19.310;2022-07-23T03:00:36;10.88;;;9.85;;
17818;SDS011;9034;50.284;19.310;2022-07-23T03:01:40;11.68;;;10.57;;
17818;SDS011;9034;50.284;19.310;2022-07-23T03:02:44;11.75;;;10.52;;
17818;SDS011;9034;50.284;19.310;2022-07-23T03:03:47;10.95;;;9.85;;
17818;SDS011;9034;50.284;19.310;2022-07-23T03:04:52;11.35;;;10.25;;
17818;SDS011;9034;50.284;19.310;2022-07-23T03:05:55;9.85;;;8.85;;
17818;SDS011;9034;50.284;19.310;2022-07-23T03:07:00;10.90;;;9.90;;
17818;SDS011;9034;50.284;19.310;2022-07-23T03:08:04;9.77;;;8.63;;
17818;SDS011;9034;50.284;19.310;2022-07-23T03:09:12;20.90;;;9.20;;
17818;SDS011;9034;50.284;19.310;2022-07-23T03:10:17;30.58;;;9.50;;
17818;SDS011;9034;50.284;19.310;2022-07-23T03:11:20;10.20;;;9.18;;
17818;SDS011;9034;50.284;19.310;2022-07-23T03:12:25;10.32;;;9.38;;
17818;SDS011;9034;50.284;19.310;2022-07-23T03:13:28;10.63;;;9.60;;
17818;SDS011;9034;50.284;19.310;2022-07-23T03:14:36;11.55;;;10.35;;
17818;SDS011;9034;50.284;19.310;2022-07-23T03:15:41;10.18;;;9.20;;
17818;SDS011;9034;50.284;19.310;2022-07-23T03:16:45;9.70;;;8.80;;
17818;SDS011;9034;50.284;19.310;2022-07-23T03:17:49;10.50;;;9.50;;
17818;SDS011;9034;50.284;19.310;2022-07-23T03:18:53;11.93;;;9.50;;
17818;SDS011;9034;50.284;19.310;2022-07-23T03:19:56;11.07;;;9.95;;
17818;SDS011;9034;50.284;19.310;2022-07-23T03:21:01;11.43;;;9.77;;
17818;SDS011;9034;50.284;19.310;2022-07-23T03:22:07;9.80;;;8.82;;
17818;SDS011;9034;50.284;19.310;2022-07-23T03:23:11;11.73;;;10.02;;
17818;SDS011;9034;50.284;19.310;2022-07-23T03:24:16;11.13;;;10.02;;
17818;SDS011;9034;50.284;19.310;2022-07-23T03:25:21;10.98;;;9.88;;
17818;SDS011;9034;50.284;19.310;2022-07-23T03:26:24;8.90;;;8.00;;
17818;SDS011;9034;50.284;19.310;2022-07-23T03:27:29;9.60;;;8.57;;
17818;SDS011;9034;50.284;19.310;2022-07-23T03:28:33;12.85;;;11.05;;
17818;SDS011;9034;50.284;19.310;2022-07-23T03:29:40;10.27;;;9.38;;
17818;SDS011;9034;50.284;19.310;2022-07-23T03:30:43;12.00;;;10.80;;
17818;SDS011;9034;50.284;19.310;2022-07-23T03:31:48;12.25;;;10.82;;
17818;SDS011;9034;50.284;19.310;2022-07-23T03:32:52;11.98;;;10.80;;
17818;SDS011;9034;50.284;19.310;2022-07-23T03:33:56;14.13;;;12.38;;
17818;SDS011;9034;50.284;19.310;2022-07-23T03:35:00;15.65;;;12.32;;
17818;SDS011;9034;50.284;19.310;2022-07-23T03:36:06;13.85;;;12.32;;
17818;SDS011;9034;50.284;19.310;2022-07-23T03:37:15;13.10;;;11.77;;
17818;SDS011;9034;50.284;19.310;2022-07-23T03:38:20;13.85;;;12.35;;
17818;SDS011;9034;50.284;19.310;2022-07-23T03:39:26;13.75;;;12.02;;
17818;SDS011;9034;50.284;19.310;2022-07-23T03:40:29;12.05;;;10.85;;
17818;SDS011;9034;50.284;19.310;2022-07-23T03:41:34;13.10;;;11.70;;
17818;SDS011;9034;50.284;19.310;2022-07-23T03:42:37;15.45;;;13.75;;
17818;SDS011;9034;50.284;19.310;2022-07-23T03:43:43;14.60;;;13.07;;
17818;SDS011;9034;50.284;19.310;2022-07-23T03:44:47;14.50;;;12.95;;
17818;SDS011;9034;50.284;19.310;2022-07-23T03:45:51;15.38;;;13.60;;
17818;SDS011;9034;50.284;19.310;2022-07-23T03:46:54;16.08;;;12.80;;
17818;SDS011;9034;50.284;19.310;2022-07-23T03:47:59;13.32;;;11.93;;
17818;SDS011;9034;50.284;19.310;2022-07-23T03:49:03;14.75;;;12.40;;
17818;SDS011;9034;50.284;19.310;2022-07-23T03:50:09;14.73;;;12.82;;
17818;SDS011;9034;50.284;19.310;2022-07-23T03:51:14;13.52;;;12.23;;
17818;SDS011;9034;50.284;19.310;2022-07-23T03:52:17;14.43;;;13.00;;
17818;SDS011;9034;50.284;19.310;2022-07-23T03:53:21;14.07;;;12.68;;
17818;SDS011;9034;50.284;19.310;2022-07-23T03:54:27;14.52;;;13.10;;
17818;SDS011;9034;50.284;19.310;2022-07-23T03:55:30;14.20;;;12.70;;
17818;SDS011;9034;50.284;19.310;2022-07-23T03:56:34;17.23;;;13.57;;
17818;SDS011;9034;50.284;19.310;2022-07-23T03:57:37;14.70;;;13.20;;
17818;SDS011;9034;50.284;19.310;2022-07-23T03:58:42;14.93;;;13.07;;
17818;SDS011;9034;50.284;19.310;2022-07-23T03:59:45;14.90;;;12.75;;
17818;SDS011;9034;50.284;19.310;2022-07-23T04:00:50;14.30;;;12.77;;
17818;SDS011;9034;50.284;19.310;2022-07-23T04:01:53;14.10;;;12.70;;
17818;SDS011;9034;50.284;19.310;2022-07-23T04:02:59;14.93;;;13.38;;
17818;SDS011;9034;50.284;19.310;2022-07-23T04:04:03;15.55;;;13.73;;
17818;SDS011;9034;50.284;19.310;2022-07-23T04:05:08;16.38;;;14.65;;
17818;SDS011;9034;50.284;19.310;2022-07-23T04:06:12;16.77;;;13.48;;
17818;SDS011;9034;50.284;19.310;2022-07-23T04:07:17;13.82;;;12.05;;
17818;SDS011;9034;50.284;19.310;2022-07-23T04:08:20;18.27;;;13.57;;
17818;SDS011;9034;50.284;19.310;2022-07-23T04:09:31;14.40;;;12.88;;
17818;SDS011;9034;50.284;19.310;2022-07-23T04:10:38;15.27;;;12.68;;
17818;SDS011;9034;50.284;19.310;2022-07-23T04:11:43;14.65;;;13.05;;
17818;SDS011;9034;50.284;19.310;2022-07-23T04:12:46;15.02;;;13.43;;
17818;SDS011;9034;50.284;19.310;2022-07-23T04:13:51;14.70;;;13.30;;
17818;SDS011;9034;50.284;19.310;2022-07-23T04:14:55;17.95;;;14.57;;
17818;SDS011;9034;50.284;19.310;2022-07-23T04:15:59;15.68;;;12.35;;
17818;SDS011;9034;50.284;19.310;2022-07-23T04:17:03;14.20;;;12.70;;
17818;SDS011;9034;50.284;19.310;2022-07-23T04:18:08;15.02;;;12.93;;
17818;SDS011;9034;50.284;19.310;2022-07-23T04:19:28;14.48;;;12.82;;
17818;SDS011;9034;50.284;19.310;2022-07-23T04:20:39;15.80;;;12.90;;
17818;SDS011;9034;50.284;19.310;2022-07-23T04:21:44;14.55;;;13.15;;
17818;SDS011;9034;50.284;19.310;2022-07-23T04:22:48;15.32;;;13.55;;
17818;SDS011;9034;50.284;19.310;2022-07-23T04:23:53;15.20;;;12.93;;
17818;SDS011;9034;50.284;19.310;2022-07-23T04:24:58;17.30;;;13.23;;
17818;SDS011;9034;50.284;19.310;2022-07-23T04:26:02;14.38;;;12.43;;
17818;SDS011;9034;50.284;19.310;2022-07-23T04:27:07;19.50;;;13.88;;
17818;SDS011;9034;50.284;19.310;2022-07-23T04:28:10;17.25;;;14.30;;
17818;SDS011;9034;50.284;19.310;2022-07-23T04:29:16;16.02;;;12.48;;
17818;SDS011;9034;50.284;19.310;2022-07-23T04:30:19;18.13;;;13.75;;
17818;SDS011;9034;50.284;19.310;2022-07-23T04:31:23;17.98;;;13.48;;
17818;SDS011;9034;50.284;19.310;2022-07-23T04:32:27;17.77;;;13.98;;
17818;SDS011;9034;50.284;19.310;2022-07-23T04:33:32;16.15;;;12.75;;
17818;SDS011;9034;50.284;19.310;2022-07-23T04:34:39;18.60;;;13.00;;
17818;SDS011;9034;50.284;19.310;2022-07-23T04:35:44;19.52;;;14.40;;
17818;SDS011;9034;50.284;19.310;2022-07-23T04:36:53;16.98;;;13.93;;
17818;SDS011;9034;50.284;19.310;2022-07-23T04:37:57;16.75;;;13.88;;
17818;SDS011;9034;50.284;19.310;2022-07-23T04:39:01;19.33;;;14.88;;
17818;SDS011;9034;50.284;19.310;2022-07-23T04:40:08;17.00;;;13.95;;
17818;SDS011;9034;50.284;19.310;2022-07-23T04:41:14;19.67;;;14.70;;
17818;SDS011;9034;50.284;19.310;2022-07-23T04:42:18;16.30;;;13.75;;
17818;SDS011;9034;50.284;19.310;2022-07-23T04:43:23;16.90;;;13.52;;
17818;SDS011;9034;50.284;19.310;2022-07-23T04:44:26;19.98;;;15.18;;
17818;SDS011;9034;50.284;19.310;2022-07-23T04:45:30;20.08;;;15.40;;
17818;SDS011;9034;50.284;19.310;2022-07-23T04:46:34;19.13;;;14.35;;
17818;SDS011;9034;50.284;19.310;2022-07-23T04:47:40;21.02;;;14.82;;
17818;SDS011;9034;50.284;19.310;2022-07-23T04:48:44;19.73;;;14.25;;
17818;SDS011;9034;50.284;19.310;2022-07-23T04:49:48;18.13;;;14.68;;
17818;SDS011;9034;50.284;19.310;2022-07-23T04:50:51;20.20;;;15.15;;
17818;SDS011;9034;50.284;19.310;2022-07-23T04:52:00;21.02;;;14.98;;
17818;SDS011;9034;50.284;19.310;2022-07-23T04:53:05;19.42;;;14.15;;
17818;SDS011;9034;50.284;19.310;2022-07-23T04:54:08;22.25;;;15.23;;
17818;SDS011;9034;50.284;19.310;2022-07-23T04:55:14;21.15;;;15.32;;
17818;SDS011;9034;50.284;19.310;2022-07-23T04:56:18;19.35;;;14.55;;
17818;SDS011;9034;50.284;19.310;2022-07-23T04:57:22;20.20;;;14.90;;
17818;SDS011;9034;50.284;19.310;2022-07-23T04:58:25;18.45;;;14.70;;
17818;SDS011;9034;50.284;19.310;2022-07-23T04:59:30;18.10;;;14.40;;
17818;SDS011;9034;50.284;19.310;2022-07-23T05:00:37;19.75;;;14.32;;
17818;SDS011;9034;50.284;19.310;2022-07-23T05:01:42;23.70;;;14.75;;
17818;SDS011;9034;50.284;19.310;2022-07-23T05:02:45;21.33;;;14.93;;
17818;SDS011;9034;50.284;19.310;2022-07-23T05:03:50;21.30;;;15.40;;
17818;SDS011;9034;50.284;19.310;2022-07-23T05:04:53;20.83;;;15.23;;
17818;SDS011;9034;50.284;19.310;2022-07-23T05:05:57;22.70;;;14.30;;
17818;SDS011;9034;50.284;19.310;2022-07-23T05:07:02;17.90;;;13.33;;
17818;SDS011;9034;50.284;19.310;2022-07-23T05:08:09;19.37;;;14.27;;
17818;SDS011;9034;50.284;19.310;2022-07-23T05:09:13;21.53;;;14.80;;
17818;SDS011;9034;50.284;19.310;2022-07-23T05:10:19;18.93;;;14.30;;
17818;SDS011;9034;50.284;19.310;2022-07-23T05:11:22;22.23;;;14.80;;
17818;SDS011;9034;50.284;19.310;2022-07-23T05:12:29;23.20;;;15.43;;
17818;SDS011;9034;50.284;19.310;2022-07-23T05:13:32;19.50;;;14.33;;
17818;SDS011;9034;50.284;19.310;2022-07-23T05:14:36;17.57;;;13.80;;
17818;SDS011;9034;50.284;19.310;2022-07-23T05:15:39;21.70;;;15.00;;
17818;SDS011;9034;50.284;19.310;2022-07-23T05:16:44;17.90;;;14.77;;
17818;SDS011;9034;50.284;19.310;2022-07-23T05:17:54;21.73;;;14.63;;
17818;SDS011;9034;50.284;19.310;2022-07-23T05:18:57;20.80;;;14.57;;
17818;SDS011;9034;50.284;19.310;2022-07-23T05:20:01;17.67;;;14.53;;
17818;SDS011;9034;50.284;19.310;2022-07-23T05:21:05;22.03;;;15.20;;
17818;SDS011;9034;50.284;19.310;2022-07-23T05:22:09;20.77;;;15.73;;
17818;SDS011;9034;50.284;19.310;2022-07-23T05:23:13;18.70;;;14.63;;
17818;SDS011;9034;50.284;19.310;2022-07-23T05:24:17;20.40;;;14.70;;
17818;SDS011;9034;50.284;19.310;2022-07-23T05:25:22;19.17;;;14.97;;
17818;SDS011;9034;50.284;19.310;2022-07-23T05:26:26;22.17;;;15.40;;
17818;SDS011;9034;50.284;19.310;2022-07-23T05:27:29;19.80;;;14.07;;
17818;SDS011;9034;50.284;19.310;2022-07-23T05:28:33;18.37;;;14.57;;
17818;SDS011;9034;50.284;19.310;2022-07-23T05:29:37;20.20;;;14.40;;
17818;SDS011;9034;50.284;19.310;2022-07-23T05:30:41;18.83;;;14.70;;
17818;SDS011;9034;50.284;19.310;2022-07-23T05:31:47;17.77;;;13.97;;
17818;SDS011;9034;50.284;19.310;2022-07-23T05:32:52;26.23;;;14.73;;
17818;SDS011;9034;50.284;19.310;2022-07-23T05:33:55;20.47;;;14.47;;
17818;SDS011;9034;50.284;19.310;2022-07-23T05:34:59;19.63;;;14.47;;
17818;SDS011;9034;50.284;19.310;2022-07-23T05:36:03;16.30;;;13.77;;
17818;SDS011;9034;50.284;19.310;2022-07-23T05:37:14;22.77;;;13.90;;
17818;SDS011;9034;50.284;19.310;2022-07-23T05:38:19;23.43;;;14.20;;
17818;SDS011;9034;50.284;19.310;2022-07-23T05:39:23;17.83;;;13.80;;
17818;SDS011;9034;50.284;19.310;2022-07-23T05:40:28;20.30;;;15.03;;
17818;SDS011;9034;50.284;19.310;2022-07-23T05:41:32;19.00;;;15.00;;
17818;SDS011;9034;50.284;19.310;2022-07-23T05:42:38;21.77;;;15.03;;
17818;SDS011;9034;50.284;19.310;2022-07-23T05:43:44;18.20;;;13.73;;
17818;SDS011;9034;50.284;19.310;2022-07-23T05:44:49;19.13;;;13.83;;
17818;SDS011;9034;50.284;19.310;2022-07-23T05:45:53;16.87;;;13.33;;
17818;SDS011;9034;50.284;19.310;2022-07-23T05:46:57;21.97;;;13.83;;
17818;SDS011;9034;50.284;19.310;2022-07-23T05:48:03;20.93;;;14.60;;
17818;SDS011;9034;50.284;19.310;2022-07-23T05:49:13;16.80;;;13.90;;
17818;SDS011;9034;50.284;19.310;2022-07-23T05:50:26;21.97;;;14.33;;
17818;SDS011;9034;50.284;19.310;2022-07-23T05:51:47;23.97;;;15.03;;
17818;SDS011;9034;50.284;19.310;2022-07-23T05:52:59;20.43;;;14.90;;
17818;SDS011;9034;50.284;19.310;2022-07-23T05:54:02;18.70;;;14.87;;
17818;SDS011;9034;50.284;19.310;2022-07-23T05:55:12;18.80;;;13.97;;
17818;SDS011;9034;50.284;19.310;2022-07-23T05:56:16;16.20;;;13.90;;
17818;SDS011;9034;50.284;19.310;2022-07-23T05:57:21;21.63;;;14.03;;
17818;SDS011;9034;50.284;19.310;2022-07-23T05:58:27;16.57;;;12.97;;
17818;SDS011;9034;50.284;19.310;2022-07-23T05:59:31;17.10;;;14.30;;
17818;SDS011;9034;50.284;19.310;2022-07-23T06:00:34;17.67;;;13.90;;
17818;SDS011;9034;50.284;19.310;2022-07-23T06:01:39;16.13;;;13.47;;
17818;SDS011;9034;50.284;19.310;2022-07-23T06:02:44;17.50;;;13.13;;
17818;SDS011;9034;50.284;19.310;2022-07-23T06:03:56;16.97;;;13.27;;
17818;SDS011;9034;50.284;19.310;2022-07-23T06:05:07;20.10;;;14.60;;
17818;SDS011;9034;50.284;19.310;2022-07-23T06:06:13;21.87;;;13.90;;
17818;SDS011;9034;50.284;19.310;2022-07-23T06:07:16;16.07;;;13.50;;
17818;SDS011;9034;50.284;19.310;2022-07-23T06:08:22;18.53;;;14.53;;
17818;SDS011;9034;50.284;19.310;2022-07-23T06:09:25;16.20;;;14.50;;
17818;SDS011;9034;50.284;19.310;2022-07-23T06:10:29;21.50;;;15.57;;
17818;SDS011;9034;50.284;19.310;2022-07-23T06:11:35;18.00;;;15.87;;
17818;SDS011;9034;50.284;19.310;2022-07-23T06:12:38;18.23;;;14.73;;
17818;SDS011;9034;50.284;19.310;2022-07-23T06:13:43;19.77;;;15.60;;
17818;SDS011;9034;50.284;19.310;2022-07-23T06:14:46;19.90;;;15.30;;
17818;SDS011;9034;50.284;19.310;2022-07-23T06:15:54;18.10;;;14.50;;
17818;SDS011;9034;50.284;19.310;2022-07-23T06:16:59;17.70;;;14.50;;
17818;SDS011;9034;50.284;19.310;2022-07-23T06:18:03;18.50;;;14.63;;
17818;SDS011;9034;50.284;19.310;2022-07-23T06:19:07;16.03;;;13.83;;
17818;SDS011;9034;50.284;19.310;2022-07-23T06:20:11;16.13;;;13.70;;
17818;SDS011;9034;50.284;19.310;2022-07-23T06:21:16;16.00;;;14.10;;
17818;SDS011;9034;50.284;19.310;2022-07-23T06:22:39;15.40;;;13.60;;
17818;SDS011;9034;50.284;19.310;2022-07-23T06:23:43;16.63;;;13.07;;